sensor_id;sensor_type;location;lat;lon;timestamp;temperature;humidity
44775;DHT22;31340;51.402;0.016;2022-08-03T00:02:17;21.00;94.90
44775;DHT22;31340;51.402;0.016;2022-08-03T00:04:45;20.90;94.90
44775;DHT22;31340;51.402;0.016;2022-08-03T00:07:13;21.00;95.00
44775;DHT22;31340;51.402;0.016;2022-08-03T00:09:40;20.90;95.00
44775;DHT22;31340;51.402;0.016;2022-08-03T00:12:08;20.90;95.10
44775;DHT22;31340;51.402;0.016;2022-08-03T00:14:36;20.90;95.20
44775;DHT22;31340;51.402;0.016;2022-08-03T00:17:04;20.90;95.20
44775;DHT22;31340;51.402;0.016;2022-08-03T00:19:33;20.90;95.30
44775;DHT22;31340;51.402;0.016;2022-08-03T00:22:01;20.90;95.40
44775;DHT22;31340;51.402;0.016;2022-08-03T00:24:29;20.80;95.40
44775;DHT22;31340;51.402;0.016;2022-08-03T00:26:58;20.80;95.50
44775;DHT22;31340;51.402;0.016;2022-08-03T00:29:26;20.80;95.50
44775;DHT22;31340;51.402;0.016;2022-08-03T00:31:53;20.80;95.60
44775;DHT22;31340;51.402;0.016;2022-08-03T00:34:27;20.80;95.60
44775;DHT22;31340;51.402;0.016;2022-08-03T00:37:15;20.80;95.60
44775;DHT22;31340;51.402;0.016;2022-08-03T00:39:43;20.70;95.60
44775;DHT22;31340;51.402;0.016;2022-08-03T00:42:12;20.70;95.70
44775;DHT22;31340;51.402;0.016;2022-08-03T00:44:42;20.70;95.70
44775;DHT22;31340;51.402;0.016;2022-08-03T00:47:10;20.70;95.80
44775;DHT22;31340;51.402;0.016;2022-08-03T00:49:39;20.70;95.90
44775;DHT22;31340;51.402;0.016;2022-08-03T00:52:09;20.70;96.00
44775;DHT22;31340;51.402;0.016;2022-08-03T00:54:37;20.70;96.00
44775;DHT22;31340;51.402;0.016;2022-08-03T00:57:05;20.70;96.00
44775;DHT22;31340;51.402;0.016;2022-08-03T00:59:33;20.70;96.10
44775;DHT22;31340;51.402;0.016;2022-08-03T01:02:01;20.70;96.20
44775;DHT22;31340;51.402;0.016;2022-08-03T01:04:29;20.70;96.30
44775;DHT22;31340;51.402;0.016;2022-08-03T01:10:40;20.60;96.30
44775;DHT22;31340;51.402;0.016;2022-08-03T01:21:31;20.50;96.70
44775;DHT22;31340;51.402;0.016;2022-08-03T01:27:15;20.50;96.90
44775;DHT22;31340;51.402;0.016;2022-08-03T01:29:55;20.50;97.00
44775;DHT22;31340;51.402;0.016;2022-08-03T01:32:33;20.50;97.10
44775;DHT22;31340;51.402;0.016;2022-08-03T01:35:27;20.40;97.10
44775;DHT22;31340;51.402;0.016;2022-08-03T01:37:57;20.40;97.30
44775;DHT22;31340;51.402;0.016;2022-08-03T01:40:27;20.30;97.40
44775;DHT22;31340;51.402;0.016;2022-08-03T01:42:59;20.30;97.50
44775;DHT22;31340;51.402;0.016;2022-08-03T01:45:29;20.30;97.60
44775;DHT22;31340;51.402;0.016;2022-08-03T01:48:01;20.30;97.70
44775;DHT22;31340;51.402;0.016;2022-08-03T01:50:31;20.30;97.80
44775;DHT22;31340;51.402;0.016;2022-08-03T01:53:01;20.20;97.80
44775;DHT22;31340;51.402;0.016;2022-08-03T01:55:31;20.20;97.90
44775;DHT22;31340;51.402;0.016;2022-08-03T01:58:02;20.20;98.10
44775;DHT22;31340;51.402;0.016;2022-08-03T02:00:36;20.20;98.20
44775;DHT22;31340;51.402;0.016;2022-08-03T02:03:06;20.20;98.30
44775;DHT22;31340;51.402;0.016;2022-08-03T02:05:34;20.10;98.30
44775;DHT22;31340;51.402;0.016;2022-08-03T02:08:04;20.10;98.30
44775;DHT22;31340;51.402;0.016;2022-08-03T02:10:35;20.10;98.40
44775;DHT22;31340;51.402;0.016;2022-08-03T02:13:06;20.10;98.50
44775;DHT22;31340;51.402;0.016;2022-08-03T02:15:36;20.10;98.60
44775;DHT22;31340;51.402;0.016;2022-08-03T02:18:06;20.10;98.70
44775;DHT22;31340;51.402;0.016;2022-08-03T02:20:35;20.10;98.80
44775;DHT22;31340;51.402;0.016;2022-08-03T02:23:05;20.10;98.40
44775;DHT22;31340;51.402;0.016;2022-08-03T02:25:39;20.00;98.90
44775;DHT22;31340;51.402;0.016;2022-08-03T02:28:11;20.00;99.10
44775;DHT22;31340;51.402;0.016;2022-08-03T02:30:42;20.00;99.30
44775;DHT22;31340;51.402;0.016;2022-08-03T02:33:18;20.10;99.30
44775;DHT22;31340;51.402;0.016;2022-08-03T02:35:48;20.00;99.40
44775;DHT22;31340;51.402;0.016;2022-08-03T02:38:20;20.10;99.50
44775;DHT22;31340;51.402;0.016;2022-08-03T02:40:50;20.10;99.60
44775;DHT22;31340;51.402;0.016;2022-08-03T02:43:20;20.10;99.60
44775;DHT22;31340;51.402;0.016;2022-08-03T02:45:50;20.20;99.70
44775;DHT22;31340;51.402;0.016;2022-08-03T02:48:22;20.10;99.60
44775;DHT22;31340;51.402;0.016;2022-08-03T02:50:57;20.10;99.70
44775;DHT22;31340;51.402;0.016;2022-08-03T02:53:26;20.20;99.80
44775;DHT22;31340;51.402;0.016;2022-08-03T02:55:56;20.20;99.80
44775;DHT22;31340;51.402;0.016;2022-08-03T02:58:24;20.20;99.80
44775;DHT22;31340;51.402;0.016;2022-08-03T03:00:53;20.20;99.90
44775;DHT22;31340;51.402;0.016;2022-08-03T03:03:22;20.20;99.80
44775;DHT22;31340;51.402;0.016;2022-08-03T03:05:53;20.20;99.80
44775;DHT22;31340;51.402;0.016;2022-08-03T03:08:25;20.30;99.80
44775;DHT22;31340;51.402;0.016;2022-08-03T03:10:59;20.30;99.80
44775;DHT22;31340;51.402;0.016;2022-08-03T03:13:28;20.30;99.80
44775;DHT22;31340;51.402;0.016;2022-08-03T03:16:00;20.30;99.80
44775;DHT22;31340;51.402;0.016;2022-08-03T03:18:30;20.30;99.80
44775;DHT22;31340;51.402;0.016;2022-08-03T03:21:00;20.30;99.80
44775;DHT22;31340;51.402;0.016;2022-08-03T03:23:29;20.30;99.70
44775;DHT22;31340;51.402;0.016;2022-08-03T03:26:00;20.30;99.70
44775;DHT22;31340;51.402;0.016;2022-08-03T03:28:29;20.40;99.60
44775;DHT22;31340;51.402;0.016;2022-08-03T03:30:58;20.30;99.60
44775;DHT22;31340;51.402;0.016;2022-08-03T03:33:27;20.40;99.60
44775;DHT22;31340;51.402;0.016;2022-08-03T03:35:56;20.40;99.60
44775;DHT22;31340;51.402;0.016;2022-08-03T03:38:24;20.40;99.60
44775;DHT22;31340;51.402;0.016;2022-08-03T03:40:52;20.40;99.50
44775;DHT22;31340;51.402;0.016;2022-08-03T03:43:22;20.40;99.50
44775;DHT22;31340;51.402;0.016;2022-08-03T03:45:50;20.50;99.50
44775;DHT22;31340;51.402;0.016;2022-08-03T03:48:20;20.40;99.40
44775;DHT22;31340;51.402;0.016;2022-08-03T03:50:49;20.40;99.40
44775;DHT22;31340;51.402;0.016;2022-08-03T03:53:16;20.50;99.30
44775;DHT22;31340;51.402;0.016;2022-08-03T03:55:45;20.50;99.30
44775;DHT22;31340;51.402;0.016;2022-08-03T03:58:30;20.50;99.30
44775;DHT22;31340;51.402;0.016;2022-08-03T04:00:58;20.50;99.20
44775;DHT22;31340;51.402;0.016;2022-08-03T04:03:26;20.50;99.20
44775;DHT22;31340;51.402;0.016;2022-08-03T04:05:54;20.50;99.20
44775;DHT22;31340;51.402;0.016;2022-08-03T04:08:41;20.50;99.10
44775;DHT22;31340;51.402;0.016;2022-08-03T04:11:34;20.50;99.10
44775;DHT22;31340;51.402;0.016;2022-08-03T04:14:10;20.50;99.00
44775;DHT22;31340;51.402;0.016;2022-08-03T04:16:41;20.50;99.00
44775;DHT22;31340;51.402;0.016;2022-08-03T04:19:18;20.50;99.00
44775;DHT22;31340;51.402;0.016;2022-08-03T04:21:53;20.50;99.00
44775;DHT22;31340;51.402;0.016;2022-08-03T04:24:29;20.50;98.90
44775;DHT22;31340;51.402;0.016;2022-08-03T04:27:01;20.50;98.90
44775;DHT22;31340;51.402;0.016;2022-08-03T04:29:30;20.50;98.90
44775;DHT22;31340;51.402;0.016;2022-08-03T04:32:00;20.60;98.90
44775;DHT22;31340;51.402;0.016;2022-08-03T04:34:29;20.50;98.90
44775;DHT22;31340;51.402;0.016;2022-08-03T04:36:59;20.60;98.90
44775;DHT22;31340;51.402;0.016;2022-08-03T04:39:30;20.60;98.90
44775;DHT22;31340;51.402;0.016;2022-08-03T04:42:01;20.60;98.80
44775;DHT22;31340;51.402;0.016;2022-08-03T04:44:43;20.60;98.80
44775;DHT22;31340;51.402;0.016;2022-08-03T04:47:11;20.60;98.80
44775;DHT22;31340;51.402;0.016;2022-08-03T04:49:39;20.50;98.80
44775;DHT22;31340;51.402;0.016;2022-08-03T04:52:07;20.50;98.90
44775;DHT22;31340;51.402;0.016;2022-08-03T04:54:41;20.60;98.90
44775;DHT22;31340;51.402;0.016;2022-08-03T04:57:15;20.50;98.90
44775;DHT22;31340;51.402;0.016;2022-08-03T04:59:53;20.50;98.80
44775;DHT22;31340;51.402;0.016;2022-08-03T05:02:29;20.60;98.90
44775;DHT22;31340;51.402;0.016;2022-08-03T05:04:58;20.50;98.80
44775;DHT22;31340;51.402;0.016;2022-08-03T05:07:25;20.50;98.80
44775;DHT22;31340;51.402;0.016;2022-08-03T05:10:04;20.50;98.90
44775;DHT22;31340;51.402;0.016;2022-08-03T05:12:42;20.50;98.90
44775;DHT22;31340;51.402;0.016;2022-08-03T05:15:10;21.10;99.10
44775;DHT22;31340;51.402;0.016;2022-08-03T05:17:39;20.50;98.90
44775;DHT22;31340;51.402;0.016;2022-08-03T05:20:07;20.50;99.00
44775;DHT22;31340;51.402;0.016;2022-08-03T05:22:35;20.50;99.00
44775;DHT22;31340;51.402;0.016;2022-08-03T05:25:03;20.60;99.00
44775;DHT22;31340;51.402;0.016;2022-08-03T05:27:31;20.60;99.00
44775;DHT22;31340;51.402;0.016;2022-08-03T05:29:59;20.60;99.00
44775;DHT22;31340;51.402;0.016;2022-08-03T05:32:47;20.60;98.90
44775;DHT22;31340;51.402;0.016;2022-08-03T05:35:14;20.60;98.90
44775;DHT22;31340;51.402;0.016;2022-08-03T05:38:02;20.60;98.90
44775;DHT22;31340;51.402;0.016;2022-08-03T05:40:32;20.60;98.90
44775;DHT22;31340;51.402;0.016;2022-08-03T05:43:00;20.60;98.90
44775;DHT22;31340;51.402;0.016;2022-08-03T05:45:28;20.70;98.90
44775;DHT22;31340;51.402;0.016;2022-08-03T05:47:56;20.70;98.90
44775;DHT22;31340;51.402;0.016;2022-08-03T05:50:23;20.70;98.90
44775;DHT22;31340;51.402;0.016;2022-08-03T05:52:54;20.80;98.80
44775;DHT22;31340;51.402;0.016;2022-08-03T05:55:24;20.80;98.80
44775;DHT22;31340;51.402;0.016;2022-08-03T05:57:52;20.80;98.80
44775;DHT22;31340;51.402;0.016;2022-08-03T06:00:22;20.80;98.80
44775;DHT22;31340;51.402;0.016;2022-08-03T06:02:52;20.80;98.50
44775;DHT22;31340;51.402;0.016;2022-08-03T06:05:19;20.80;98.80
44775;DHT22;31340;51.402;0.016;2022-08-03T06:07:47;20.90;98.80
44775;DHT22;31340;51.402;0.016;2022-08-03T06:10:15;20.90;98.80
44775;DHT22;31340;51.402;0.016;2022-08-03T06:13:03;20.90;98.80
44775;DHT22;31340;51.402;0.016;2022-08-03T06:15:31;20.90;98.80
44775;DHT22;31340;51.402;0.016;2022-08-03T06:18:00;21.00;98.80
44775;DHT22;31340;51.402;0.016;2022-08-03T06:20:28;21.00;98.70
44775;DHT22;31340;51.402;0.016;2022-08-03T06:22:56;21.10;98.70
44775;DHT22;31340;51.402;0.016;2022-08-03T06:25:27;21.10;98.60
44775;DHT22;31340;51.402;0.016;2022-08-03T06:27:55;21.10;98.40
44775;DHT22;31340;51.402;0.016;2022-08-03T06:30:23;21.10;98.70
44775;DHT22;31340;51.402;0.016;2022-08-03T06:32:50;21.20;98.60
44775;DHT22;31340;51.402;0.016;2022-08-03T06:35:19;21.20;98.60
44775;DHT22;31340;51.402;0.016;2022-08-03T06:37:48;21.30;98.60
44775;DHT22;31340;51.402;0.016;2022-08-03T06:40:21;21.30;98.40
44775;DHT22;31340;51.402;0.016;2022-08-03T06:43:01;21.40;98.30
44775;DHT22;31340;51.402;0.016;2022-08-03T06:45:30;21.40;98.20
44775;DHT22;31340;51.402;0.016;2022-08-03T06:48:06;21.40;98.20
44775;DHT22;31340;51.402;0.016;2022-08-03T06:50:36;21.50;98.20
44775;DHT22;31340;51.402;0.016;2022-08-03T06:53:04;21.40;98.10
44775;DHT22;31340;51.402;0.016;2022-08-03T06:55:32;21.50;98.00
44775;DHT22;31340;51.402;0.016;2022-08-03T06:58:08;21.50;98.00
44775;DHT22;31340;51.402;0.016;2022-08-03T07:00:36;21.50;97.90
44775;DHT22;31340;51.402;0.016;2022-08-03T07:03:04;21.60;97.90
44775;DHT22;31340;51.402;0.016;2022-08-03T07:05:31;21.60;97.90
44775;DHT22;31340;51.402;0.016;2022-08-03T07:08:01;21.60;97.90
44775;DHT22;31340;51.402;0.016;2022-08-03T07:10:29;21.60;97.90
44775;DHT22;31340;51.402;0.016;2022-08-03T07:12:57;21.70;97.80
44775;DHT22;31340;51.402;0.016;2022-08-03T07:15:25;21.70;97.80
44775;DHT22;31340;51.402;0.016;2022-08-03T07:18:13;21.70;97.70
44775;DHT22;31340;51.402;0.016;2022-08-03T07:20:40;21.80;97.70
44775;DHT22;31340;51.402;0.016;2022-08-03T07:23:08;21.80;97.60
44775;DHT22;31340;51.402;0.016;2022-08-03T07:25:42;21.80;97.50
44775;DHT22;31340;51.402;0.016;2022-08-03T07:28:10;21.90;97.50
44775;DHT22;31340;51.402;0.016;2022-08-03T07:30:37;21.90;97.40
44775;DHT22;31340;51.402;0.016;2022-08-03T07:33:05;21.90;97.30
44775;DHT22;31340;51.402;0.016;2022-08-03T07:35:32;22.00;97.30
44775;DHT22;31340;51.402;0.016;2022-08-03T07:38:00;22.10;97.20
44775;DHT22;31340;51.402;0.016;2022-08-03T07:40:28;22.10;97.10
44775;DHT22;31340;51.402;0.016;2022-08-03T07:42:58;22.10;97.00
44775;DHT22;31340;51.402;0.016;2022-08-03T07:45:26;22.10;96.90
44775;DHT22;31340;51.402;0.016;2022-08-03T07:47:54;22.20;96.80
44775;DHT22;31340;51.402;0.016;2022-08-03T07:50:22;22.20;96.70
44775;DHT22;31340;51.402;0.016;2022-08-03T07:52:50;22.20;96.70
44775;DHT22;31340;51.402;0.016;2022-08-03T07:55:21;22.20;96.60
44775;DHT22;31340;51.402;0.016;2022-08-03T07:58:18;22.30;96.60
44775;DHT22;31340;51.402;0.016;2022-08-03T08:00:50;22.30;96.50
44775;DHT22;31340;51.402;0.016;2022-08-03T08:03:19;22.30;96.50
44775;DHT22;31340;51.402;0.016;2022-08-03T08:05:48;22.30;96.50
44775;DHT22;31340;51.402;0.016;2022-08-03T08:08:16;22.40;96.50
44775;DHT22;31340;51.402;0.016;2022-08-03T08:10:43;22.40;96.40
44775;DHT22;31340;51.402;0.016;2022-08-03T08:13:25;22.40;96.30
44775;DHT22;31340;51.402;0.016;2022-08-03T08:15:52;22.50;96.20
44775;DHT22;31340;51.402;0.016;2022-08-03T08:18:20;22.50;96.10
44775;DHT22;31340;51.402;0.016;2022-08-03T08:20:48;22.50;96.10
44775;DHT22;31340;51.402;0.016;2022-08-03T08:23:16;22.60;96.10
44775;DHT22;31340;51.402;0.016;2022-08-03T08:26:09;22.60;96.00
44775;DHT22;31340;51.402;0.016;2022-08-03T08:28:37;22.70;96.00
44775;DHT22;31340;51.402;0.016;2022-08-03T08:31:05;22.80;96.00
44775;DHT22;31340;51.402;0.016;2022-08-03T08:33:32;22.80;95.80
44775;DHT22;31340;51.402;0.016;2022-08-03T08:36:22;22.90;95.50
44775;DHT22;31340;51.402;0.016;2022-08-03T08:38:50;23.00;95.20
44775;DHT22;31340;51.402;0.016;2022-08-03T08:41:17;23.00;95.10
44775;DHT22;31340;51.402;0.016;2022-08-03T08:43:45;23.10;95.00
44775;DHT22;31340;51.402;0.016;2022-08-03T08:46:13;23.20;94.90
44775;DHT22;31340;51.402;0.016;2022-08-03T08:48:51;23.20;94.70
44775;DHT22;31340;51.402;0.016;2022-08-03T08:51:21;23.30;94.70
44775;DHT22;31340;51.402;0.016;2022-08-03T08:53:51;23.30;94.50
44775;DHT22;31340;51.402;0.016;2022-08-03T08:56:19;23.40;94.40
44775;DHT22;31340;51.402;0.016;2022-08-03T08:58:52;23.50;94.30
44775;DHT22;31340;51.402;0.016;2022-08-03T09:01:20;23.50;94.00
44775;DHT22;31340;51.402;0.016;2022-08-03T09:03:48;23.60;93.90
44775;DHT22;31340;51.402;0.016;2022-08-03T09:06:18;23.60;93.70
44775;DHT22;31340;51.402;0.016;2022-08-03T09:08:45;23.60;93.70
44775;DHT22;31340;51.402;0.016;2022-08-03T09:11:13;23.70;93.50
44775;DHT22;31340;51.402;0.016;2022-08-03T09:13:41;23.70;93.40
44775;DHT22;31340;51.402;0.016;2022-08-03T09:16:20;23.70;93.30
44775;DHT22;31340;51.402;0.016;2022-08-03T09:18:50;23.80;93.40
44775;DHT22;31340;51.402;0.016;2022-08-03T09:21:23;23.80;93.30
44775;DHT22;31340;51.402;0.016;2022-08-03T09:24:02;23.80;93.20
44775;DHT22;31340;51.402;0.016;2022-08-03T09:26:36;23.90;93.20
44775;DHT22;31340;51.402;0.016;2022-08-03T09:29:09;23.90;93.10
44775;DHT22;31340;51.402;0.016;2022-08-03T09:31:45;24.00;93.10
44775;DHT22;31340;51.402;0.016;2022-08-03T09:34:15;24.00;92.80
44775;DHT22;31340;51.402;0.016;2022-08-03T09:36:45;24.00;93.00
44775;DHT22;31340;51.402;0.016;2022-08-03T09:41:45;24.10;92.40
44775;DHT22;31340;51.402;0.016;2022-08-03T09:44:13;24.10;92.50
44775;DHT22;31340;51.402;0.016;2022-08-03T09:46:55;24.10;92.50
44775;DHT22;31340;51.402;0.016;2022-08-03T09:49:23;24.20;92.40
44775;DHT22;31340;51.402;0.016;2022-08-03T09:51:52;24.30;92.30
44775;DHT22;31340;51.402;0.016;2022-08-03T09:54:41;24.30;92.10
44775;DHT22;31340;51.402;0.016;2022-08-03T09:57:23;24.40;91.90
44775;DHT22;31340;51.402;0.016;2022-08-03T09:59:52;24.40;91.70
44775;DHT22;31340;51.402;0.016;2022-08-03T10:02:40;24.50;91.70
44775;DHT22;31340;51.402;0.016;2022-08-03T10:05:11;24.60;91.60
44775;DHT22;31340;51.402;0.016;2022-08-03T10:07:49;24.70;91.30
44775;DHT22;31340;51.402;0.016;2022-08-03T10:10:16;24.80;91.10
44775;DHT22;31340;51.402;0.016;2022-08-03T10:12:57;24.80;91.10
44775;DHT22;31340;51.402;0.016;2022-08-03T10:15:26;24.90;91.10
44775;DHT22;31340;51.402;0.016;2022-08-03T10:18:14;25.00;90.90
44775;DHT22;31340;51.402;0.016;2022-08-03T10:20:50;25.10;90.80
44775;DHT22;31340;51.402;0.016;2022-08-03T10:23:20;25.30;90.40
44775;DHT22;31340;51.402;0.016;2022-08-03T10:25:53;25.40;90.10
44775;DHT22;31340;51.402;0.016;2022-08-03T10:28:22;25.50;90.00
44775;DHT22;31340;51.402;0.016;2022-08-03T10:30:52;25.60;89.40
44775;DHT22;31340;51.402;0.016;2022-08-03T10:33:23;25.80;88.20
44775;DHT22;31340;51.402;0.016;2022-08-03T10:36:12;25.90;87.90
44775;DHT22;31340;51.402;0.016;2022-08-03T10:38:43;26.00;87.70
44775;DHT22;31340;51.402;0.016;2022-08-03T10:41:15;26.20;87.20
44775;DHT22;31340;51.402;0.016;2022-08-03T10:43:57;26.30;86.50
44775;DHT22;31340;51.402;0.016;2022-08-03T10:46:26;26.50;85.40
44775;DHT22;31340;51.402;0.016;2022-08-03T10:48:55;26.60;85.40
44775;DHT22;31340;51.402;0.016;2022-08-03T10:51:23;26.80;84.60
44775;DHT22;31340;51.402;0.016;2022-08-03T10:53:58;27.00;84.00
44775;DHT22;31340;51.402;0.016;2022-08-03T10:59:18;27.30;82.40
44775;DHT22;31340;51.402;0.016;2022-08-03T11:01:56;27.50;81.80
44775;DHT22;31340;51.402;0.016;2022-08-03T11:04:27;27.60;81.20
44775;DHT22;31340;51.402;0.016;2022-08-03T11:07:32;27.70;80.30
44775;DHT22;31340;51.402;0.016;2022-08-03T11:09:59;27.80;79.50
44775;DHT22;31340;51.402;0.016;2022-08-03T11:12:29;27.80;79.40
44775;DHT22;31340;51.402;0.016;2022-08-03T11:15:06;27.90;79.20
44775;DHT22;31340;51.402;0.016;2022-08-03T11:17:35;27.90;78.80
44775;DHT22;31340;51.402;0.016;2022-08-03T11:20:44;27.90;78.40
44775;DHT22;31340;51.402;0.016;2022-08-03T11:23:13;28.20;77.70
44775;DHT22;31340;51.402;0.016;2022-08-03T11:26:07;28.30;77.30
44775;DHT22;31340;51.402;0.016;2022-08-03T11:28:38;28.40;76.30
44775;DHT22;31340;51.402;0.016;2022-08-03T11:34:12;28.70;76.00
44775;DHT22;31340;51.402;0.016;2022-08-03T11:39:49;29.00;74.30
44775;DHT22;31340;51.402;0.016;2022-08-03T11:47:23;29.60;72.00
44775;DHT22;31340;51.402;0.016;2022-08-03T11:49:57;29.70;71.80
44775;DHT22;31340;51.402;0.016;2022-08-03T11:52:33;29.90;71.30
44775;DHT22;31340;51.402;0.016;2022-08-03T11:55:08;30.10;70.40
44775;DHT22;31340;51.402;0.016;2022-08-03T11:57:36;30.20;69.50
44775;DHT22;31340;51.402;0.016;2022-08-03T12:00:31;30.30;69.00
44775;DHT22;31340;51.402;0.016;2022-08-03T12:03:08;30.50;68.00
44775;DHT22;31340;51.402;0.016;2022-08-03T12:05:51;30.60;66.90
44775;DHT22;31340;51.402;0.016;2022-08-03T12:10:56;30.50;67.10
44775;DHT22;31340;51.402;0.016;2022-08-03T12:13:24;30.60;67.10
44775;DHT22;31340;51.402;0.016;2022-08-03T12:16:17;30.70;66.30
44775;DHT22;31340;51.402;0.016;2022-08-03T12:18:57;30.80;65.80
44775;DHT22;31340;51.402;0.016;2022-08-03T12:21:25;30.80;65.70
44775;DHT22;31340;51.402;0.016;2022-08-03T12:24:02;30.90;66.00
44775;DHT22;31340;51.402;0.016;2022-08-03T12:26:45;31.00;64.90
44775;DHT22;31340;51.402;0.016;2022-08-03T12:29:26;31.20;64.60
44775;DHT22;31340;51.402;0.016;2022-08-03T12:31:54;31.40;64.80
44775;DHT22;31340;51.402;0.016;2022-08-03T12:34:22;31.50;62.90
44775;DHT22;31340;51.402;0.016;2022-08-03T12:36:52;31.70;62.60
44775;DHT22;31340;51.402;0.016;2022-08-03T12:39:24;31.90;62.60
44775;DHT22;31340;51.402;0.016;2022-08-03T12:41:54;32.10;61.60
44775;DHT22;31340;51.402;0.016;2022-08-03T12:44:31;32.30;60.60
44775;DHT22;31340;51.402;0.016;2022-08-03T12:47:01;32.40;59.40
44775;DHT22;31340;51.402;0.016;2022-08-03T12:49:48;32.50;59.00
44775;DHT22;31340;51.402;0.016;2022-08-03T12:52:17;32.70;58.50
44775;DHT22;31340;51.402;0.016;2022-08-03T12:54:58;32.70;57.70
44775;DHT22;31340;51.402;0.016;2022-08-03T12:57:38;32.90;57.50
44775;DHT22;31340;51.402;0.016;2022-08-03T13:00:11;33.00;58.60
44775;DHT22;31340;51.402;0.016;2022-08-03T13:03:06;33.10;56.70
44775;DHT22;31340;51.402;0.016;2022-08-03T13:05:54;33.20;56.00
44775;DHT22;31340;51.402;0.016;2022-08-03T13:08:23;33.30;55.90
44775;DHT22;31340;51.402;0.016;2022-08-03T13:10:51;33.40;55.10
44775;DHT22;31340;51.402;0.016;2022-08-03T13:13:37;33.50;54.70
44775;DHT22;31340;51.402;0.016;2022-08-03T13:16:05;33.70;54.00
44775;DHT22;31340;51.402;0.016;2022-08-03T13:18:32;33.80;53.90
44775;DHT22;31340;51.402;0.016;2022-08-03T13:21:00;33.80;53.60
44775;DHT22;31340;51.402;0.016;2022-08-03T13:23:30;33.90;53.00
44775;DHT22;31340;51.402;0.016;2022-08-03T13:25:58;34.00;52.70
44775;DHT22;31340;51.402;0.016;2022-08-03T13:28:26;34.10;52.80
44775;DHT22;31340;51.402;0.016;2022-08-03T13:30:54;34.20;52.10
44775;DHT22;31340;51.402;0.016;2022-08-03T13:33:21;34.30;51.40
44775;DHT22;31340;51.402;0.016;2022-08-03T13:35:49;34.30;51.20
44775;DHT22;31340;51.402;0.016;2022-08-03T13:38:17;34.40;50.70
44775;DHT22;31340;51.402;0.016;2022-08-03T13:40:47;34.40;50.30
44775;DHT22;31340;51.402;0.016;2022-08-03T13:43:16;34.40;50.00
44775;DHT22;31340;51.402;0.016;2022-08-03T13:45:44;34.40;49.80
44775;DHT22;31340;51.402;0.016;2022-08-03T13:48:19;34.50;49.90
44775;DHT22;31340;51.402;0.016;2022-08-03T13:51:04;34.50;49.40
44775;DHT22;31340;51.402;0.016;2022-08-03T13:53:50;34.50;49.40
44775;DHT22;31340;51.402;0.016;2022-08-03T13:56:19;34.70;49.70
44775;DHT22;31340;51.402;0.016;2022-08-03T13:58:46;34.80;48.90
44775;DHT22;31340;51.402;0.016;2022-08-03T14:01:14;34.90;48.30
44775;DHT22;31340;51.402;0.016;2022-08-03T14:03:42;34.90;47.50
44775;DHT22;31340;51.402;0.016;2022-08-03T14:06:09;35.00;47.10
44775;DHT22;31340;51.402;0.016;2022-08-03T14:08:37;35.00;46.90
44775;DHT22;31340;51.402;0.016;2022-08-03T14:11:04;35.00;47.10
44775;DHT22;31340;51.402;0.016;2022-08-03T14:13:32;35.00;47.00
44775;DHT22;31340;51.402;0.016;2022-08-03T14:16:00;35.10;47.20
44775;DHT22;31340;51.402;0.016;2022-08-03T14:18:29;35.20;46.50
44775;DHT22;31340;51.402;0.016;2022-08-03T14:21:01;35.20;46.50
44775;DHT22;31340;51.402;0.016;2022-08-03T14:23:35;35.30;46.70
44775;DHT22;31340;51.402;0.016;2022-08-03T14:26:07;35.30;46.50
44775;DHT22;31340;51.402;0.016;2022-08-03T14:28:35;35.40;46.30
44775;DHT22;31340;51.402;0.016;2022-08-03T14:31:03;35.50;46.70
44775;DHT22;31340;51.402;0.016;2022-08-03T14:33:51;35.60;45.90
44775;DHT22;31340;51.402;0.016;2022-08-03T14:36:18;35.60;46.00
44775;DHT22;31340;51.402;0.016;2022-08-03T14:38:46;35.80;45.40
44775;DHT22;31340;51.402;0.016;2022-08-03T14:41:14;35.90;44.70
44775;DHT22;31340;51.402;0.016;2022-08-03T14:43:46;35.90;44.60
44775;DHT22;31340;51.402;0.016;2022-08-03T14:46:29;35.90;44.90
44775;DHT22;31340;51.402;0.016;2022-08-03T14:48:57;36.00;44.90
44775;DHT22;31340;51.402;0.016;2022-08-03T14:51:45;36.10;44.70
44775;DHT22;31340;51.402;0.016;2022-08-03T14:54:21;36.30;44.10
44775;DHT22;31340;51.402;0.016;2022-08-03T14:56:49;36.30;43.90
44775;DHT22;31340;51.402;0.016;2022-08-03T14:59:16;36.40;43.60
44775;DHT22;31340;51.402;0.016;2022-08-03T15:01:44;36.50;43.70
44775;DHT22;31340;51.402;0.016;2022-08-03T15:04:32;36.50;43.90
44775;DHT22;31340;51.402;0.016;2022-08-03T15:06:59;36.40;43.30
44775;DHT22;31340;51.402;0.016;2022-08-03T15:09:27;36.20;43.40
44775;DHT22;31340;51.402;0.016;2022-08-03T15:11:55;36.00;43.70
44775;DHT22;31340;51.402;0.016;2022-08-03T15:14:22;35.90;44.10
44775;DHT22;31340;51.402;0.016;2022-08-03T15:16:59;35.90;44.30
44775;DHT22;31340;51.402;0.016;2022-08-03T15:19:27;35.90;44.50
44775;DHT22;31340;51.402;0.016;2022-08-03T15:22:15;35.70;44.70
44775;DHT22;31340;51.402;0.016;2022-08-03T15:24:47;35.60;44.80
44775;DHT22;31340;51.402;0.016;2022-08-03T15:27:14;35.60;45.10
44775;DHT22;31340;51.402;0.016;2022-08-03T15:29:42;35.60;45.10
44775;DHT22;31340;51.402;0.016;2022-08-03T15:32:30;35.50;45.30
44775;DHT22;31340;51.402;0.016;2022-08-03T15:34:57;35.50;45.70
44775;DHT22;31340;51.402;0.016;2022-08-03T15:37:25;35.50;45.60
44775;DHT22;31340;51.402;0.016;2022-08-03T15:39:54;35.30;45.60
44775;DHT22;31340;51.402;0.016;2022-08-03T15:42:28;35.20;45.90
44775;DHT22;31340;51.402;0.016;2022-08-03T15:44:56;35.00;46.10
44775;DHT22;31340;51.402;0.016;2022-08-03T15:47:24;34.90;46.20
44775;DHT22;31340;51.402;0.016;2022-08-03T15:49:51;34.70;46.70
44775;DHT22;31340;51.402;0.016;2022-08-03T15:52:19;34.50;46.90
44775;DHT22;31340;51.402;0.016;2022-08-03T15:54:47;34.30;47.30
44775;DHT22;31340;51.402;0.016;2022-08-03T15:57:14;34.30;47.80
44775;DHT22;31340;51.402;0.016;2022-08-03T15:59:42;34.10;48.00
44775;DHT22;31340;51.402;0.016;2022-08-03T16:02:10;34.00;48.20
44775;DHT22;31340;51.402;0.016;2022-08-03T16:04:37;33.90;48.50
44775;DHT22;31340;51.402;0.016;2022-08-03T16:07:05;33.70;48.80
44775;DHT22;31340;51.402;0.016;2022-08-03T16:09:32;33.50;49.20
44775;DHT22;31340;51.402;0.016;2022-08-03T16:12:10;33.40;49.50
44775;DHT22;31340;51.402;0.016;2022-08-03T16:14:43;33.40;49.70
44775;DHT22;31340;51.402;0.016;2022-08-03T16:17:20;33.40;50.40
44775;DHT22;31340;51.402;0.016;2022-08-03T16:19:49;33.50;50.30
44775;DHT22;31340;51.402;0.016;2022-08-03T16:22:21;33.60;50.00
44775;DHT22;31340;51.402;0.016;2022-08-03T16:24:51;33.70;50.00
44775;DHT22;31340;51.402;0.016;2022-08-03T16:27:20;33.80;50.00
44775;DHT22;31340;51.402;0.016;2022-08-03T16:30:09;33.70;49.90
44775;DHT22;31340;51.402;0.016;2022-08-03T16:32:37;33.50;49.90
44775;DHT22;31340;51.402;0.016;2022-08-03T16:35:06;33.50;50.00